sensor_id;sensor_type;location;lat;lon;timestamp;P1;durP1;ratioP1;P2;durP2;ratioP2
81217;SDS011;70689;52.494;13.420;2023-09-08T00:02:22;9.65;;;7.78;;
81217;SDS011;70689;52.494;13.420;2023-09-08T00:04:51;9.85;;;7.75;;
81217;SDS011;70689;52.494;13.420;2023-09-08T00:07:16;10.48;;;7.85;;
81217;SDS011;70689;52.494;13.420;2023-09-08T00:09:42;10.05;;;8.18;;
81217;SDS011;70689;52.494;13.420;2023-09-08T00:12:08;12.98;;;7.72;;
81217;SDS011;70689;52.494;13.420;2023-09-08T00:14:34;10.77;;;8.15;;
81217;SDS011;70689;52.494;13.420;2023-09-08T00:16:59;10.50;;;7.93;;
81217;SDS011;70689;52.494;13.420;2023-09-08T00:19:25;11.57;;;8.07;;
81217;SDS011;70689;52.494;13.420;2023-09-08T00:21:51;11.27;;;8.23;;
81217;SDS011;70689;52.494;13.420;2023-09-08T00:24:16;11.75;;;8.52;;
81217;SDS011;70689;52.494;13.420;2023-09-08T00:26:43;10.23;;;7.97;;
81217;SDS011;70689;52.494;13.420;2023-09-08T00:29:09;10.50;;;8.13;;
81217;SDS011;70689;52.494;13.420;2023-09-08T00:31:34;12.90;;;7.90;;
81217;SDS011;70689;52.494;13.420;2023-09-08T00:34:00;10.63;;;8.35;;
81217;SDS011;70689;52.494;13.420;2023-09-08T00:36:26;11.18;;;8.77;;
81217;SDS011;70689;52.494;13.420;2023-09-08T00:38:51;10.43;;;8.18;;
81217;SDS011;70689;52.494;13.420;2023-09-08T00:41:17;13.00;;;8.18;;
81217;SDS011;70689;52.494;13.420;2023-09-08T00:43:43;10.05;;;8.35;;
81217;SDS011;70689;52.494;13.420;2023-09-08T00:46:08;10.25;;;8.00;;
81217;SDS011;70689;52.494;13.420;2023-09-08T00:48:34;10.60;;;8.40;;
81217;SDS011;70689;52.494;13.420;2023-09-08T00:51:01;11.50;;;8.23;;
81217;SDS011;70689;52.494;13.420;2023-09-08T00:53:27;12.23;;;8.00;;
81217;SDS011;70689;52.494;13.420;2023-09-08T00:55:53;10.32;;;8.15;;
81217;SDS011;70689;52.494;13.420;2023-09-08T00:58:19;12.35;;;8.75;;
81217;SDS011;70689;52.494;13.420;2023-09-08T01:00:45;11.43;;;8.27;;
81217;SDS011;70689;52.494;13.420;2023-09-08T01:03:11;9.55;;;7.95;;
81217;SDS011;70689;52.494;13.420;2023-09-08T01:05:37;12.07;;;8.50;;
81217;SDS011;70689;52.494;13.420;2023-09-08T01:08:03;12.40;;;8.38;;
81217;SDS011;70689;52.494;13.420;2023-09-08T01:10:30;10.23;;;8.52;;
81217;SDS011;70689;52.494;13.420;2023-09-08T01:12:56;14.85;;;8.35;;
81217;SDS011;70689;52.494;13.420;2023-09-08T01:15:22;11.93;;;8.43;;
81217;SDS011;70689;52.494;13.420;2023-09-08T01:17:48;14.65;;;8.55;;
81217;SDS011;70689;52.494;13.420;2023-09-08T01:25:29;13.20;;;8.60;;
81217;SDS011;70689;52.494;13.420;2023-09-08T01:27:58;13.73;;;8.52;;
81217;SDS011;70689;52.494;13.420;2023-09-08T01:30:27;12.15;;;8.80;;
81217;SDS011;70689;52.494;13.420;2023-09-08T01:32:54;12.75;;;8.77;;
81217;SDS011;70689;52.494;13.420;2023-09-08T01:35:21;10.63;;;8.40;;
81217;SDS011;70689;52.494;13.420;2023-09-08T01:37:48;11.35;;;8.80;;
81217;SDS011;70689;52.494;13.420;2023-09-08T01:40:14;9.70;;;8.68;;
81217;SDS011;70689;52.494;13.420;2023-09-08T01:42:40;10.52;;;8.80;;
81217;SDS011;70689;52.494;13.420;2023-09-08T01:45:06;11.30;;;8.88;;
81217;SDS011;70689;52.494;13.420;2023-09-08T01:47:33;13.70;;;8.52;;
81217;SDS011;70689;52.494;13.420;2023-09-08T01:49:59;12.02;;;8.68;;
81217;SDS011;70689;52.494;13.420;2023-09-08T01:52:25;11.50;;;8.60;;
81217;SDS011;70689;52.494;13.420;2023-09-08T01:54:51;11.77;;;8.77;;
81217;SDS011;70689;52.494;13.420;2023-09-08T01:57:16;14.02;;;9.05;;
81217;SDS011;70689;52.494;13.420;2023-09-08T01:59:42;12.35;;;9.18;;
81217;SDS011;70689;52.494;13.420;2023-09-08T02:02:09;12.60;;;8.88;;
81217;SDS011;70689;52.494;13.420;2023-09-08T02:04:35;12.68;;;8.60;;
81217;SDS011;70689;52.494;13.420;2023-09-08T02:07:01;9.55;;;8.55;;
81217;SDS011;70689;52.494;13.420;2023-09-08T02:09:32;10.48;;;8.93;;
81217;SDS011;70689;52.494;13.420;2023-09-08T02:11:58;11.80;;;8.68;;
81217;SDS011;70689;52.494;13.420;2023-09-08T02:14:24;10.55;;;8.32;;
81217;SDS011;70689;52.494;13.420;2023-09-08T02:16:49;11.88;;;8.65;;
81217;SDS011;70689;52.494;13.420;2023-09-08T02:19:15;11.05;;;8.93;;
81217;SDS011;70689;52.494;13.420;2023-09-08T02:21:41;10.05;;;8.85;;
81217;SDS011;70689;52.494;13.420;2023-09-08T02:24:06;12.88;;;9.10;;
81217;SDS011;70689;52.494;13.420;2023-09-08T02:26:32;11.38;;;9.23;;
81217;SDS011;70689;52.494;13.420;2023-09-08T02:28:59;14.85;;;8.90;;
81217;SDS011;70689;52.494;13.420;2023-09-08T02:31:25;10.43;;;9.00;;
81217;SDS011;70689;52.494;13.420;2023-09-08T02:33:51;10.30;;;9.13;;
81217;SDS011;70689;52.494;13.420;2023-09-08T02:36:17;11.02;;;9.27;;
81217;SDS011;70689;52.494;13.420;2023-09-08T02:38:43;12.48;;;9.50;;
81217;SDS011;70689;52.494;13.420;2023-09-08T02:41:08;12.98;;;9.15;;
81217;SDS011;70689;52.494;13.420;2023-09-08T02:43:34;13.40;;;8.60;;
81217;SDS011;70689;52.494;13.420;2023-09-08T02:45:59;11.77;;;8.80;;
81217;SDS011;70689;52.494;13.420;2023-09-08T02:48:25;12.43;;;9.05;;
81217;SDS011;70689;52.494;13.420;2023-09-08T02:50:51;11.02;;;9.25;;
81217;SDS011;70689;52.494;13.420;2023-09-08T02:53:18;12.55;;;9.30;;
81217;SDS011;70689;52.494;13.420;2023-09-08T02:55:45;10.68;;;9.32;;
81217;SDS011;70689;52.494;13.420;2023-09-08T02:58:11;14.38;;;9.18;;
81217;SDS011;70689;52.494;13.420;2023-09-08T03:00:37;12.93;;;9.38;;
81217;SDS011;70689;52.494;13.420;2023-09-08T03:03:03;10.75;;;9.55;;
81217;SDS011;70689;52.494;13.420;2023-09-08T03:05:28;12.43;;;8.95;;
81217;SDS011;70689;52.494;13.420;2023-09-08T03:07:54;12.35;;;9.70;;
81217;SDS011;70689;52.494;13.420;2023-09-08T03:10:20;12.35;;;9.52;;
81217;SDS011;70689;52.494;13.420;2023-09-08T03:12:45;10.70;;;8.95;;
81217;SDS011;70689;52.494;13.420;2023-09-08T03:15:11;11.52;;;9.57;;
81217;SDS011;70689;52.494;13.420;2023-09-08T03:17:36;12.85;;;9.65;;
81217;SDS011;70689;52.494;13.420;2023-09-08T03:20:03;13.07;;;9.80;;
81217;SDS011;70689;52.494;13.420;2023-09-08T03:22:32;11.23;;;9.45;;
81217;SDS011;70689;52.494;13.420;2023-09-08T03:24:58;11.73;;;9.77;;
81217;SDS011;70689;52.494;13.420;2023-09-08T03:27:23;11.10;;;9.35;;
81217;SDS011;70689;52.494;13.420;2023-09-08T03:29:49;11.38;;;9.50;;
81217;SDS011;70689;52.494;13.420;2023-09-08T03:32:14;12.45;;;9.75;;
81217;SDS011;70689;52.494;13.420;2023-09-08T03:34:40;12.32;;;9.55;;
81217;SDS011;70689;52.494;13.420;2023-09-08T03:37:06;14.40;;;9.40;;
81217;SDS011;70689;52.494;13.420;2023-09-08T03:39:31;14.65;;;10.13;;
81217;SDS011;70689;52.494;13.420;2023-09-08T03:41:57;11.88;;;9.68;;
81217;SDS011;70689;52.494;13.420;2023-09-08T03:44:23;14.68;;;9.90;;
81217;SDS011;70689;52.494;13.420;2023-09-08T03:46:48;13.25;;;10.18;;
81217;SDS011;70689;52.494;13.420;2023-09-08T03:49:14;13.68;;;9.82;;
81217;SDS011;70689;52.494;13.420;2023-09-08T03:51:39;13.05;;;10.27;;
81217;SDS011;70689;52.494;13.420;2023-09-08T03:54:05;12.40;;;9.48;;
81217;SDS011;70689;52.494;13.420;2023-09-08T03:56:31;11.55;;;9.82;;
81217;SDS011;70689;52.494;13.420;2023-09-08T03:58:56;12.35;;;9.75;;
81217;SDS011;70689;52.494;13.420;2023-09-08T04:01:22;12.82;;;10.32;;
81217;SDS011;70689;52.494;13.420;2023-09-08T04:03:47;14.68;;;10.90;;
81217;SDS011;70689;52.494;13.420;2023-09-08T04:06:13;12.20;;;10.07;;
81217;SDS011;70689;52.494;13.420;2023-09-08T04:08:39;12.02;;;9.80;;
81217;SDS011;70689;52.494;13.420;2023-09-08T04:11:04;13.00;;;10.18;;
81217;SDS011;70689;52.494;13.420;2023-09-08T04:13:30;21.90;;;15.00;;
81217;SDS011;70689;52.494;13.420;2023-09-08T04:15:56;13.43;;;10.70;;
81217;SDS011;70689;52.494;13.420;2023-09-08T04:18:21;13.48;;;10.10;;
81217;SDS011;70689;52.494;13.420;2023-09-08T04:20:47;15.32;;;11.40;;
81217;SDS011;70689;52.494;13.420;2023-09-08T04:23:13;13.07;;;10.52;;
81217;SDS011;70689;52.494;13.420;2023-09-08T04:25:38;17.48;;;10.57;;
81217;SDS011;70689;52.494;13.420;2023-09-08T04:28:04;14.13;;;10.50;;
81217;SDS011;70689;52.494;13.420;2023-09-08T04:30:30;15.07;;;10.30;;
81217;SDS011;70689;52.494;13.420;2023-09-08T04:32:55;13.73;;;10.13;;
81217;SDS011;70689;52.494;13.420;2023-09-08T04:35:21;12.20;;;10.63;;
81217;SDS011;70689;52.494;13.420;2023-09-08T04:37:47;14.13;;;11.45;;
81217;SDS011;70689;52.494;13.420;2023-09-08T04:40:13;13.48;;;10.68;;
81217;SDS011;70689;52.494;13.420;2023-09-08T04:42:39;16.48;;;10.95;;
81217;SDS011;70689;52.494;13.420;2023-09-08T04:45:05;17.27;;;11.80;;
81217;SDS011;70689;52.494;13.420;2023-09-08T04:47:31;18.50;;;10.55;;
81217;SDS011;70689;52.494;13.420;2023-09-08T04:49:56;15.38;;;10.73;;
81217;SDS011;70689;52.494;13.420;2023-09-08T04:52:22;14.25;;;10.95;;
81217;SDS011;70689;52.494;13.420;2023-09-08T04:54:47;15.70;;;11.35;;
81217;SDS011;70689;52.494;13.420;2023-09-08T04:57:13;11.65;;;10.43;;
81217;SDS011;70689;52.494;13.420;2023-09-08T04:59:39;12.48;;;11.00;;
81217;SDS011;70689;52.494;13.420;2023-09-08T05:02:04;15.32;;;11.68;;
81217;SDS011;70689;52.494;13.420;2023-09-08T05:04:30;14.30;;;10.93;;
81217;SDS011;70689;52.494;13.420;2023-09-08T05:06:56;16.92;;;10.93;;
81217;SDS011;70689;52.494;13.420;2023-09-08T05:09:21;19.52;;;11.30;;
81217;SDS011;70689;52.494;13.420;2023-09-08T05:11:50;15.77;;;11.80;;
81217;SDS011;70689;52.494;13.420;2023-09-08T05:14:16;16.30;;;10.88;;
81217;SDS011;70689;52.494;13.420;2023-09-08T05:16:41;12.23;;;10.90;;
81217;SDS011;70689;52.494;13.420;2023-09-08T05:19:11;15.02;;;11.43;;
81217;SDS011;70689;52.494;13.420;2023-09-08T05:21:38;14.63;;;11.50;;
81217;SDS011;70689;52.494;13.420;2023-09-08T05:24:05;16.10;;;10.98;;
81217;SDS011;70689;52.494;13.420;2023-09-08T05:26:31;18.10;;;12.35;;
81217;SDS011;70689;52.494;13.420;2023-09-08T05:28:57;17.45;;;11.55;;
81217;SDS011;70689;52.494;13.420;2023-09-08T05:31:22;16.23;;;11.05;;
81217;SDS011;70689;52.494;13.420;2023-09-08T05:33:48;11.55;;;10.35;;
81217;SDS011;70689;52.494;13.420;2023-09-08T05:36:14;16.35;;;11.30;;
81217;SDS011;70689;52.494;13.420;2023-09-08T05:38:39;16.10;;;11.13;;
81217;SDS011;70689;52.494;13.420;2023-09-08T05:41:05;14.15;;;11.23;;
81217;SDS011;70689;52.494;13.420;2023-09-08T05:43:31;16.30;;;11.77;;
81217;SDS011;70689;52.494;13.420;2023-09-08T05:45:56;15.30;;;11.70;;
81217;SDS011;70689;52.494;13.420;2023-09-08T05:48:22;13.63;;;10.75;;
81217;SDS011;70689;52.494;13.420;2023-09-08T05:50:47;13.77;;;10.73;;
81217;SDS011;70689;52.494;13.420;2023-09-08T05:53:13;16.05;;;11.27;;
81217;SDS011;70689;52.494;13.420;2023-09-08T05:55:39;15.95;;;11.32;;
81217;SDS011;70689;52.494;13.420;2023-09-08T05:58:05;20.45;;;12.48;;
81217;SDS011;70689;52.494;13.420;2023-09-08T06:00:32;14.98;;;10.95;;
81217;SDS011;70689;52.494;13.420;2023-09-08T06:02:58;16.77;;;11.63;;
81217;SDS011;70689;52.494;13.420;2023-09-08T06:05:24;20.08;;;11.68;;
81217;SDS011;70689;52.494;13.420;2023-09-08T06:07:49;19.27;;;10.95;;
81217;SDS011;70689;52.494;13.420;2023-09-08T06:10:15;17.92;;;12.13;;
81217;SDS011;70689;52.494;13.420;2023-09-08T06:12:40;17.88;;;11.65;;
81217;SDS011;70689;52.494;13.420;2023-09-08T06:15:08;21.35;;;11.18;;
81217;SDS011;70689;52.494;13.420;2023-09-08T06:17:34;13.20;;;11.07;;
81217;SDS011;70689;52.494;13.420;2023-09-08T06:20:02;15.50;;;11.75;;
81217;SDS011;70689;52.494;13.420;2023-09-08T06:22:28;16.95;;;10.65;;
81217;SDS011;70689;52.494;13.420;2023-09-08T06:24:53;15.30;;;10.80;;
81217;SDS011;70689;52.494;13.420;2023-09-08T06:27:19;22.30;;;11.23;;
81217;SDS011;70689;52.494;13.420;2023-09-08T06:29:45;15.02;;;10.82;;
81217;SDS011;70689;52.494;13.420;2023-09-08T06:32:11;17.23;;;10.57;;
81217;SDS011;70689;52.494;13.420;2023-09-08T06:34:37;16.67;;;10.73;;
81217;SDS011;70689;52.494;13.420;2023-09-08T06:37:03;15.02;;;10.98;;
81217;SDS011;70689;52.494;13.420;2023-09-08T06:39:28;14.40;;;10.82;;
81217;SDS011;70689;52.494;13.420;2023-09-08T06:41:54;15.38;;;10.48;;
81217;SDS011;70689;52.494;13.420;2023-09-08T06:44:23;12.13;;;10.30;;
81217;SDS011;70689;52.494;13.420;2023-09-08T06:46:48;13.68;;;10.35;;
81217;SDS011;70689;52.494;13.420;2023-09-08T06:49:14;17.48;;;10.88;;
81217;SDS011;70689;52.494;13.420;2023-09-08T06:51:40;19.90;;;13.57;;
81217;SDS011;70689;52.494;13.420;2023-09-08T06:54:05;17.65;;;10.65;;
81217;SDS011;70689;52.494;13.420;2023-09-08T06:56:31;17.30;;;10.73;;
81217;SDS011;70689;52.494;13.420;2023-09-08T06:58:56;15.50;;;10.45;;
81217;SDS011;70689;52.494;13.420;2023-09-08T07:01:25;14.57;;;10.07;;
81217;SDS011;70689;52.494;13.420;2023-09-08T07:03:51;13.70;;;9.93;;
81217;SDS011;70689;52.494;13.420;2023-09-08T07:06:17;14.98;;;10.40;;
81217;SDS011;70689;52.494;13.420;2023-09-08T07:08:42;15.85;;;9.65;;
81217;SDS011;70689;52.494;13.420;2023-09-08T07:11:08;18.48;;;9.80;;
81217;SDS011;70689;52.494;13.420;2023-09-08T07:13:34;19.02;;;10.18;;
81217;SDS011;70689;52.494;13.420;2023-09-08T07:16:00;12.13;;;9.50;;
81217;SDS011;70689;52.494;13.420;2023-09-08T07:18:25;13.52;;;9.40;;
81217;SDS011;70689;52.494;13.420;2023-09-08T07:20:51;12.35;;;8.90;;
81217;SDS011;70689;52.494;13.420;2023-09-08T07:23:17;11.10;;;8.48;;
81217;SDS011;70689;52.494;13.420;2023-09-08T07:25:46;11.82;;;8.98;;
81217;SDS011;70689;52.494;13.420;2023-09-08T07:28:12;15.05;;;8.68;;
81217;SDS011;70689;52.494;13.420;2023-09-08T07:30:38;12.95;;;7.95;;
81217;SDS011;70689;52.494;13.420;2023-09-08T07:33:03;13.43;;;8.32;;
81217;SDS011;70689;52.494;13.420;2023-09-08T07:35:31;13.10;;;8.48;;
81217;SDS011;70689;52.494;13.420;2023-09-08T07:37:56;15.40;;;8.70;;
81217;SDS011;70689;52.494;13.420;2023-09-08T07:40:22;13.13;;;7.75;;
81217;SDS011;70689;52.494;13.420;2023-09-08T07:42:48;11.57;;;8.25;;
81217;SDS011;70689;52.494;13.420;2023-09-08T07:45:14;12.13;;;8.75;;
81217;SDS011;70689;52.494;13.420;2023-09-08T07:47:40;13.15;;;8.68;;
81217;SDS011;70689;52.494;13.420;2023-09-08T07:50:19;17.33;;;8.73;;
81217;SDS011;70689;52.494;13.420;2023-09-08T07:52:49;14.63;;;8.05;;
81217;SDS011;70689;52.494;13.420;2023-09-08T07:55:16;13.63;;;8.05;;
81217;SDS011;70689;52.494;13.420;2023-09-08T07:57:42;14.55;;;8.45;;
81217;SDS011;70689;52.494;13.420;2023-09-08T08:00:09;10.40;;;7.85;;
81217;SDS011;70689;52.494;13.420;2023-09-08T08:02:42;12.95;;;8.32;;
81217;SDS011;70689;52.494;13.420;2023-09-08T08:05:10;13.65;;;9.00;;
81217;SDS011;70689;52.494;13.420;2023-09-08T08:07:36;11.88;;;8.32;;
81217;SDS011;70689;52.494;13.420;2023-09-08T08:10:03;14.32;;;8.00;;
81217;SDS011;70689;52.494;13.420;2023-09-08T08:12:29;13.15;;;7.68;;
81217;SDS011;70689;52.494;13.420;2023-09-08T08:14:54;14.25;;;8.57;;
81217;SDS011;70689;52.494;13.420;2023-09-08T08:17:20;13.80;;;7.88;;
81217;SDS011;70689;52.494;13.420;2023-09-08T08:19:46;12.60;;;7.72;;
81217;SDS011;70689;52.494;13.420;2023-09-08T08:22:12;10.45;;;7.25;;
81217;SDS011;70689;52.494;13.420;2023-09-08T08:24:38;14.93;;;8.43;;
81217;SDS011;70689;52.494;13.420;2023-09-08T08:27:03;11.20;;;7.63;;
81217;SDS011;70689;52.494;13.420;2023-09-08T08:29:29;13.48;;;8.48;;
81217;SDS011;70689;52.494;13.420;2023-09-08T08:31:55;10.60;;;7.43;;
81217;SDS011;70689;52.494;13.420;2023-09-08T08:34:21;9.05;;;7.47;;
81217;SDS011;70689;52.494;13.420;2023-09-08T08:36:47;21.80;;;8.75;;
81217;SDS011;70689;52.494;13.420;2023-09-08T08:39:13;12.65;;;8.32;;
81217;SDS011;70689;52.494;13.420;2023-09-08T08:41:40;9.57;;;7.30;;
81217;SDS011;70689;52.494;13.420;2023-09-08T08:44:06;13.90;;;8.27;;
81217;SDS011;70689;52.494;13.420;2023-09-08T08:46:33;10.80;;;8.45;;
81217;SDS011;70689;52.494;13.420;2023-09-08T08:49:01;20.00;;;12.35;;
81217;SDS011;70689;52.494;13.420;2023-09-08T08:51:28;19.25;;;9.50;;
81217;SDS011;70689;52.494;13.420;2023-09-08T08:53:55;10.77;;;8.00;;
81217;SDS011;70689;52.494;13.420;2023-09-08T08:56:21;10.88;;;7.25;;
81217;SDS011;70689;52.494;13.420;2023-09-08T08:58:48;8.75;;;7.32;;
81217;SDS011;70689;52.494;13.420;2023-09-08T09:01:15;11.98;;;7.35;;
81217;SDS011;70689;52.494;13.420;2023-09-08T09:03:44;11.23;;;7.60;;
81217;SDS011;70689;52.494;13.420;2023-09-08T09:06:13;15.25;;;8.15;;
81217;SDS011;70689;52.494;13.420;2023-09-08T09:08:40;9.13;;;6.88;;
81217;SDS011;70689;52.494;13.420;2023-09-08T09:11:09;11.82;;;6.70;;
81217;SDS011;70689;52.494;13.420;2023-09-08T09:13:35;8.75;;;6.68;;
81217;SDS011;70689;52.494;13.420;2023-09-08T09:16:01;15.07;;;7.68;;
81217;SDS011;70689;52.494;13.420;2023-09-08T09:18:29;10.05;;;7.10;;
81217;SDS011;70689;52.494;13.420;2023-09-08T09:20:56;9.50;;;6.78;;
81217;SDS011;70689;52.494;13.420;2023-09-08T09:23:29;11.05;;;7.35;;
81217;SDS011;70689;52.494;13.420;2023-09-08T09:25:56;13.48;;;7.28;;
81217;SDS011;70689;52.494;13.420;2023-09-08T09:28:23;9.02;;;6.60;;
81217;SDS011;70689;52.494;13.420;2023-09-08T09:30:50;10.30;;;6.72;;
81217;SDS011;70689;52.494;13.420;2023-09-08T09:33:19;11.10;;;7.05;;
81217;SDS011;70689;52.494;13.420;2023-09-08T09:35:46;15.65;;;7.82;;
81217;SDS011;70689;52.494;13.420;2023-09-08T09:38:17;13.10;;;7.25;;
81217;SDS011;70689;52.494;13.420;2023-09-08T09:40:44;13.25;;;7.65;;
81217;SDS011;70689;52.494;13.420;2023-09-08T09:43:11;18.83;;;7.68;;
81217;SDS011;70689;52.494;13.420;2023-09-08T09:45:37;7.65;;;6.32;;
81217;SDS011;70689;52.494;13.420;2023-09-08T09:48:04;7.10;;;6.15;;
81217;SDS011;70689;52.494;13.420;2023-09-08T09:50:35;8.68;;;6.43;;
81217;SDS011;70689;52.494;13.420;2023-09-08T09:53:09;10.35;;;6.65;;
81217;SDS011;70689;52.494;13.420;2023-09-08T09:55:36;8.85;;;6.32;;
81217;SDS011;70689;52.494;13.420;2023-09-08T09:58:03;10.70;;;6.60;;
81217;SDS011;70689;52.494;13.420;2023-09-08T10:00:30;9.60;;;7.35;;
81217;SDS011;70689;52.494;13.420;2023-09-08T10:02:59;16.33;;;7.47;;
81217;SDS011;70689;52.494;13.420;2023-09-08T10:05:25;10.52;;;6.63;;
81217;SDS011;70689;52.494;13.420;2023-09-08T10:07:52;16.15;;;8.88;;
81217;SDS011;70689;52.494;13.420;2023-09-08T10:10:19;10.50;;;6.50;;
81217;SDS011;70689;52.494;13.420;2023-09-08T10:12:46;8.35;;;6.93;;
81217;SDS011;70689;52.494;13.420;2023-09-08T10:15:18;10.23;;;6.38;;
81217;SDS011;70689;52.494;13.420;2023-09-08T10:17:52;10.13;;;6.15;;
81217;SDS011;70689;52.494;13.420;2023-09-08T10:20:29;8.50;;;5.93;;
81217;SDS011;70689;52.494;13.420;2023-09-08T10:22:57;8.88;;;6.22;;
81217;SDS011;70689;52.494;13.420;2023-09-08T10:25:34;10.10;;;6.43;;
81217;SDS011;70689;52.494;13.420;2023-09-08T10:28:02;7.75;;;6.13;;
81217;SDS011;70689;52.494;13.420;2023-09-08T10:30:29;8.43;;;6.47;;
81217;SDS011;70689;52.494;13.420;2023-09-08T10:32:56;10.50;;;6.68;;
81217;SDS011;70689;52.494;13.420;2023-09-08T10:35:22;9.88;;;5.70;;
81217;SDS011;70689;52.494;13.420;2023-09-08T10:37:48;7.90;;;5.60;;
81217;SDS011;70689;52.494;13.420;2023-09-08T10:43:10;9.65;;;5.45;;
81217;SDS011;70689;52.494;13.420;2023-09-08T10:45:36;11.88;;;6.32;;
81217;SDS011;70689;52.494;13.420;2023-09-08T10:48:02;7.60;;;6.40;;
81217;SDS011;70689;52.494;13.420;2023-09-08T10:50:33;10.75;;;6.32;;
81217;SDS011;70689;52.494;13.420;2023-09-08T10:53:06;9.38;;;6.00;;
81217;SDS011;70689;52.494;13.420;2023-09-08T10:55:40;12.43;;;6.05;;
81217;SDS011;70689;52.494;13.420;2023-09-08T10:58:11;9.80;;;6.53;;
81217;SDS011;70689;52.494;13.420;2023-09-08T11:00:42;9.25;;;5.70;;
81217;SDS011;70689;52.494;13.420;2023-09-08T11:03:09;9.50;;;6.38;;
81217;SDS011;70689;52.494;13.420;2023-09-08T11:05:35;8.70;;;5.63;;
81217;SDS011;70689;52.494;13.420;2023-09-08T11:08:00;8.13;;;5.50;;
81217;SDS011;70689;52.494;13.420;2023-09-08T11:10:26;8.32;;;5.80;;
81217;SDS011;70689;52.494;13.420;2023-09-08T11:12:54;10.40;;;5.30;;
81217;SDS011;70689;52.494;13.420;2023-09-08T11:15:19;11.15;;;5.80;;
81217;SDS011;70689;52.494;13.420;2023-09-08T11:17:45;7.32;;;5.22;;
81217;SDS011;70689;52.494;13.420;2023-09-08T11:20:15;8.88;;;5.18;;
81217;SDS011;70689;52.494;13.420;2023-09-08T11:22:42;8.55;;;4.97;;
81217;SDS011;70689;52.494;13.420;2023-09-08T11:25:09;7.47;;;5.10;;
81217;SDS011;70689;52.494;13.420;2023-09-08T11:27:36;13.50;;;6.28;;
81217;SDS011;70689;52.494;13.420;2023-09-08T11:30:05;12.27;;;5.68;;
81217;SDS011;70689;52.494;13.420;2023-09-08T11:32:33;6.15;;;5.18;;
81217;SDS011;70689;52.494;13.420;2023-09-08T11:35:06;10.38;;;5.50;;
81217;SDS011;70689;52.494;13.420;2023-09-08T11:37:37;7.70;;;5.00;;
81217;SDS011;70689;52.494;13.420;2023-09-08T11:40:04;12.30;;;5.43;;
81217;SDS011;70689;52.494;13.420;2023-09-08T11:42:43;9.60;;;6.70;;
81217;SDS011;70689;52.494;13.420;2023-09-08T11:45:12;8.13;;;5.20;;
81217;SDS011;70689;52.494;13.420;2023-09-08T11:47:39;8.70;;;7.13;;
81217;SDS011;70689;52.494;13.420;2023-09-08T11:50:07;8.77;;;4.95;;
81217;SDS011;70689;52.494;13.420;2023-09-08T11:52:34;9.23;;;4.90;;
81217;SDS011;70689;52.494;13.420;2023-09-08T11:55:00;7.38;;;4.72;;
81217;SDS011;70689;52.494;13.420;2023-09-08T11:57:27;7.63;;;4.70;;
81217;SDS011;70689;52.494;13.420;2023-09-08T11:59:53;6.85;;;4.78;;
81217;SDS011;70689;52.494;13.420;2023-09-08T12:02:19;8.57;;;5.35;;
81217;SDS011;70689;52.494;13.420;2023-09-08T12:04:45;6.90;;;5.50;;
81217;SDS011;70689;52.494;13.420;2023-09-08T12:07:13;5.85;;;5.03;;
81217;SDS011;70689;52.494;13.420;2023-09-08T12:09:43;9.52;;;4.68;;
81217;SDS011;70689;52.494;13.420;2023-09-08T12:12:11;5.07;;;4.50;;
81217;SDS011;70689;52.494;13.420;2023-09-08T12:14:43;7.43;;;5.30;;
81217;SDS011;70689;52.494;13.420;2023-09-08T12:17:08;8.75;;;4.95;;
81217;SDS011;70689;52.494;13.420;2023-09-08T12:19:34;9.15;;;5.00;;
81217;SDS011;70689;52.494;13.420;2023-09-08T12:22:04;7.28;;;6.07;;
81217;SDS011;70689;52.494;13.420;2023-09-08T12:27:19;5.70;;;4.57;;
81217;SDS011;70689;52.494;13.420;2023-09-08T12:30:00;6.47;;;4.90;;
81217;SDS011;70689;52.494;13.420;2023-09-08T12:32:28;6.65;;;5.10;;
81217;SDS011;70689;52.494;13.420;2023-09-08T12:34:55;9.20;;;5.45;;
81217;SDS011;70689;52.494;13.420;2023-09-08T12:37:21;8.55;;;5.43;;
81217;SDS011;70689;52.494;13.420;2023-09-08T12:39:48;8.48;;;5.53;;
81217;SDS011;70689;52.494;13.420;2023-09-08T12:42:14;6.72;;;4.85;;
81217;SDS011;70689;52.494;13.420;2023-09-08T12:44:39;8.63;;;5.10;;
81217;SDS011;70689;52.494;13.420;2023-09-08T12:47:06;9.07;;;6.00;;
81217;SDS011;70689;52.494;13.420;2023-09-08T12:49:32;8.52;;;5.05;;
81217;SDS011;70689;52.494;13.420;2023-09-08T12:51:57;8.30;;;5.38;;
81217;SDS011;70689;52.494;13.420;2023-09-08T12:54:23;8.10;;;5.43;;
81217;SDS011;70689;52.494;13.420;2023-09-08T12:56:49;9.30;;;5.75;;
81217;SDS011;70689;52.494;13.420;2023-09-08T12:59:16;6.35;;;4.60;;
81217;SDS011;70689;52.494;13.420;2023-09-08T13:04:09;7.22;;;5.53;;
81217;SDS011;70689;52.494;13.420;2023-09-08T13:06:38;7.57;;;5.63;;
81217;SDS011;70689;52.494;13.420;2023-09-08T13:09:03;8.10;;;5.78;;
81217;SDS011;70689;52.494;13.420;2023-09-08T13:11:29;9.48;;;6.82;;
81217;SDS011;70689;52.494;13.420;2023-09-08T13:13:55;8.52;;;6.80;;
81217;SDS011;70689;52.494;13.420;2023-09-08T13:16:21;16.00;;;7.53;;
81217;SDS011;70689;52.494;13.420;2023-09-08T13:18:47;7.32;;;5.82;;
81217;SDS011;70689;52.494;13.420;2023-09-08T13:21:14;8.18;;;5.93;;
81217;SDS011;70689;52.494;13.420;2023-09-08T13:23:39;9.10;;;6.40;;
81217;SDS011;70689;52.494;13.420;2023-09-08T13:26:05;9.90;;;6.28;;
81217;SDS011;70689;52.494;13.420;2023-09-08T13:28:30;7.30;;;5.60;;
81217;SDS011;70689;52.494;13.420;2023-09-08T13:30:56;8.52;;;5.53;;
81217;SDS011;70689;52.494;13.420;2023-09-08T13:33:22;11.43;;;5.55;;
81217;SDS011;70689;52.494;13.420;2023-09-08T13:35:47;10.07;;;5.57;;
81217;SDS011;70689;52.494;13.420;2023-09-08T13:38:13;6.75;;;5.30;;
81217;SDS011;70689;52.494;13.420;2023-09-08T13:40:39;10.90;;;6.10;;
81217;SDS011;70689;52.494;13.420;2023-09-08T13:43:06;10.98;;;5.72;;
81217;SDS011;70689;52.494;13.420;2023-09-08T13:45:32;7.50;;;5.65;;
81217;SDS011;70689;52.494;13.420;2023-09-08T13:47:57;8.13;;;5.30;;
81217;SDS011;70689;52.494;13.420;2023-09-08T13:50:23;8.23;;;4.90;;
81217;SDS011;70689;52.494;13.420;2023-09-08T13:52:49;7.47;;;5.28;;
81217;SDS011;70689;52.494;13.420;2023-09-08T13:55:14;8.10;;;6.43;;
81217;SDS011;70689;52.494;13.420;2023-09-08T13:57:40;6.63;;;5.53;;
81217;SDS011;70689;52.494;13.420;2023-09-08T14:00:06;10.20;;;5.60;;
81217;SDS011;70689;52.494;13.420;2023-09-08T14:02:33;11.43;;;5.90;;
81217;SDS011;70689;52.494;13.420;2023-09-08T14:04:59;11.27;;;6.63;;
81217;SDS011;70689;52.494;13.420;2023-09-08T14:07:25;11.40;;;7.18;;
81217;SDS011;70689;52.494;13.420;2023-09-08T14:09:50;8.80;;;5.60;;
81217;SDS011;70689;52.494;13.420;2023-09-08T14:12:16;6.88;;;5.18;;
81217;SDS011;70689;52.494;13.420;2023-09-08T14:14:42;9.90;;;6.07;;
81217;SDS011;70689;52.494;13.420;2023-09-08T14:17:07;6.78;;;5.63;;
81217;SDS011;70689;52.494;13.420;2023-09-08T14:19:33;6.40;;;5.00;;
81217;SDS011;70689;52.494;13.420;2023-09-08T14:21:58;9.07;;;4.70;;
81217;SDS011;70689;52.494;13.420;2023-09-08T14:24:24;7.18;;;4.85;;
81217;SDS011;70689;52.494;13.420;2023-09-08T14:26:49;8.07;;;4.95;;
81217;SDS011;70689;52.494;13.420;2023-09-08T14:29:16;10.10;;;5.22;;
81217;SDS011;70689;52.494;13.420;2023-09-08T14:31:42;7.53;;;4.93;;